createdAt,value
2023-05-14T00:02:01.629Z,6.97
2023-05-14T00:12:06.074Z,6.50
2023-05-14T00:17:08.587Z,5.88
2023-05-14T00:22:11.282Z,6.57
2023-05-14T00:27:13.285Z,6.63
2023-05-14T00:32:15.446Z,6.93
2023-05-14T00:37:17.431Z,7.15
2023-05-14T00:42:19.531Z,6.95
2023-05-14T00:47:21.612Z,6.22
2023-05-14T00:52:23.747Z,7.03
2023-05-14T00:57:25.781Z,6.78
2023-05-14T01:02:27.886Z,6.63
2023-05-14T01:08:00.631Z,6.95
2023-05-14T01:13:08.545Z,8.13
2023-05-14T01:18:13.893Z,7.05
2023-05-14T01:23:15.885Z,6.55
2023-05-14T01:28:20.378Z,6.40
2023-05-14T01:33:25.034Z,7.03
2023-05-14T01:38:31.041Z,6.97
2023-05-14T01:43:33.483Z,8.15
2023-05-14T01:53:37.520Z,6.65
2023-05-14T01:58:39.596Z,6.72
2023-05-14T02:03:41.731Z,6.50
2023-05-14T02:08:43.992Z,6.50
2023-05-14T02:13:45.989Z,7.13
2023-05-14T02:18:48.119Z,7.55
2023-05-14T02:23:50.526Z,7.28
2023-05-14T02:28:52.585Z,6.65
2023-05-14T02:33:54.597Z,6.78
2023-05-14T02:38:59.055Z,7.15
2023-05-14T02:44:01.056Z,7.45
2023-05-14T02:49:03.487Z,7.72
2023-05-14T02:59:07.630Z,6.95
2023-05-14T03:09:11.921Z,6.85
2023-05-14T03:14:13.966Z,7.80
2023-05-14T03:19:16.029Z,8.43
2023-05-14T03:24:17.998Z,8.13
2023-05-14T03:29:20.038Z,8.85
2023-05-14T03:34:22.276Z,7.95
2023-05-14T03:39:24.368Z,8.95
2023-05-14T03:44:26.432Z,8.68
2023-05-14T03:49:28.415Z,8.32
2023-05-14T03:54:30.524Z,8.30
2023-05-14T03:59:32.622Z,8.80
2023-05-14T04:04:34.820Z,8.90
2023-05-14T04:09:36.949Z,9.85
2023-05-14T04:14:39.009Z,10.02
2023-05-14T04:19:41.101Z,9.57
2023-05-14T04:24:43.040Z,8.55
2023-05-14T04:29:44.978Z,7.78
2023-05-14T04:34:47.581Z,7.82
2023-05-14T04:39:49.560Z,8.18
2023-05-14T04:44:51.555Z,8.70
2023-05-14T04:49:53.586Z,7.57
2023-05-14T04:54:55.605Z,7.45
2023-05-14T04:59:57.630Z,7.38
2023-05-14T05:04:59.601Z,6.63
2023-05-14T05:10:01.672Z,6.88
2023-05-14T05:15:04.023Z,6.35
2023-05-14T05:20:09.926Z,6.63
2023-05-14T05:25:13.209Z,6.75
2023-05-14T05:30:15.218Z,6.28
2023-05-14T05:35:17.280Z,6.13
2023-05-14T05:40:19.433Z,6.00
2023-05-14T05:45:21.706Z,5.93
2023-05-14T05:50:24.904Z,6.03
2023-05-14T05:55:27.410Z,5.82
2023-05-14T06:00:29.517Z,5.40
2023-05-14T06:05:31.598Z,5.68
2023-05-14T06:10:34.792Z,5.25
2023-05-14T06:15:36.889Z,4.75
2023-05-14T06:20:41.464Z,5.88
2023-05-14T06:25:44.054Z,5.18
2023-05-14T06:30:46.235Z,6.25
2023-05-14T06:35:48.420Z,5.43
2023-05-14T06:40:50.616Z,4.85
2023-05-14T06:45:54.675Z,5.28
2023-05-14T06:50:57.242Z,3.47
2023-05-14T06:55:59.348Z,5.25
2023-05-14T07:01:01.616Z,5.47
2023-05-14T07:06:03.892Z,5.38
2023-05-14T07:16:25.165Z,4.53
2023-05-14T07:21:27.219Z,5.10
2023-05-14T07:26:29.919Z,5.38
2023-05-14T07:31:32.605Z,4.57
2023-05-14T07:36:35.091Z,5.10
2023-05-14T07:41:38.063Z,4.88
2023-05-14T07:46:40.177Z,4.47
2023-05-14T07:51:42.223Z,4.43
2023-05-14T07:56:44.882Z,5.00
2023-05-14T08:01:47.410Z,3.63
2023-05-14T08:06:50.176Z,3.42
2023-05-14T08:11:52.193Z,2.80
2023-05-14T08:16:54.432Z,3.55
2023-05-14T08:21:56.590Z,3.17
2023-05-14T08:26:58.667Z,4.15
2023-05-14T08:32:08.450Z,3.53
2023-05-14T08:37:18.077Z,3.00
2023-05-14T08:42:22.387Z,3.50
2023-05-14T08:47:25.631Z,3.10
2023-05-14T08:52:28.097Z,2.90
2023-05-14T08:57:32.356Z,3.65
2023-05-14T09:02:35.356Z,3.30
2023-05-14T09:07:37.697Z,3.17
2023-05-14T09:12:39.891Z,3.00
2023-05-14T09:17:42.089Z,3.15
2023-05-14T09:22:44.194Z,3.05
2023-05-14T09:27:50.623Z,3.40
2023-05-14T09:32:55.434Z,2.78
2023-05-14T09:37:57.573Z,4.45
2023-05-14T09:43:02.125Z,3.38
2023-05-14T09:48:04.465Z,4.72
2023-05-14T09:53:07.698Z,2.95
2023-05-14T09:58:09.791Z,2.72
2023-05-14T10:03:16.050Z,2.92
2023-05-14T10:08:26.020Z,2.53
2023-05-14T10:13:37.527Z,2.45
2023-05-14T10:18:48.795Z,2.35
2023-05-14T10:23:52.614Z,2.45
2023-05-14T10:28:56.537Z,2.20
2023-05-14T10:33:59.934Z,2.90
2023-05-14T10:39:04.921Z,2.83
2023-05-14T10:44:09.849Z,2.50
2023-05-14T10:49:12.091Z,2.10
2023-05-14T10:54:14.270Z,2.63
2023-05-14T10:59:19.392Z,2.67
2023-05-14T11:04:24.739Z,2.80
2023-05-14T11:09:27.329Z,2.58
2023-05-14T11:14:29.490Z,2.90
2023-05-14T11:19:31.738Z,2.55
2023-05-14T11:24:33.876Z,2.22
2023-05-14T11:29:43.603Z,2.53
2023-05-14T11:34:46.798Z,2.67
2023-05-14T11:39:53.061Z,2.45
2023-05-14T11:44:55.159Z,3.05
2023-05-14T11:49:57.310Z,2.47
2023-05-14T11:54:59.381Z,2.15
2023-05-14T12:00:01.529Z,2.97
2023-05-14T12:05:03.651Z,3.00
2023-05-14T12:10:06.431Z,1.98
2023-05-14T12:15:16.807Z,3.00
2023-05-14T12:20:19.409Z,2.83
2023-05-14T12:25:21.752Z,2.88
2023-05-14T12:30:23.793Z,2.78
2023-05-14T12:35:25.995Z,2.00
2023-05-14T12:40:28.346Z,2.15
2023-05-14T12:45:31.075Z,2.30
2023-05-14T12:50:33.076Z,2.45
2023-05-14T12:55:35.173Z,2.35
2023-05-14T13:00:37.256Z,3.22
2023-05-14T13:05:39.543Z,1.98
2023-05-14T13:10:41.664Z,2.75
2023-05-14T13:15:43.845Z,2.38
2023-05-14T13:20:47.744Z,3.08
2023-05-14T13:25:50.128Z,3.15
2023-05-14T13:31:12.599Z,2.58
2023-05-14T13:36:15.415Z,2.47
2023-05-14T13:41:17.436Z,1.73
2023-05-14T13:46:19.578Z,2.40
2023-05-14T13:51:25.595Z,2.35
2023-05-14T13:56:27.685Z,2.78
2023-05-14T14:01:31.297Z,2.95
2023-05-14T14:06:33.566Z,2.42
2023-05-14T14:11:35.704Z,2.80
2023-05-14T14:16:37.928Z,2.83
2023-05-14T14:21:43.026Z,2.70
2023-05-14T14:26:45.078Z,2.00
2023-05-14T14:31:49.238Z,2.83
2023-05-14T14:36:51.397Z,2.80
2023-05-14T14:41:53.504Z,3.17
2023-05-14T14:46:55.629Z,2.80
2023-05-14T14:51:58.030Z,2.33
2023-05-14T14:57:00.153Z,2.42
2023-05-14T15:02:02.482Z,2.35
2023-05-14T15:07:05.106Z,2.72
2023-05-14T15:12:09.170Z,2.63
2023-05-14T15:17:11.264Z,1.83
2023-05-14T15:22:13.475Z,1.77
2023-05-14T15:27:16.043Z,2.72
2023-05-14T15:32:18.234Z,2.20
2023-05-14T15:37:21.033Z,2.40
2023-05-14T15:42:23.131Z,2.17
2023-05-14T15:47:25.296Z,2.35
2023-05-14T15:52:27.784Z,2.05
2023-05-14T15:57:29.980Z,2.40
2023-05-14T16:02:33.603Z,2.03
2023-05-14T16:07:37.470Z,1.90
2023-05-14T16:12:39.601Z,2.28
2023-05-14T16:17:42.843Z,2.60
2023-05-14T16:22:45.535Z,2.33
2023-05-14T16:27:47.765Z,2.03
2023-05-14T16:32:50.227Z,2.30
2023-05-14T16:37:52.570Z,2.10
2023-05-14T16:42:54.593Z,2.25
2023-05-14T16:47:56.759Z,2.08
2023-05-14T16:52:59.125Z,2.20
2023-05-14T16:58:03.533Z,2.13
2023-05-14T17:03:06.702Z,2.38
2023-05-14T17:08:08.813Z,2.70
2023-05-14T17:13:10.980Z,7.50
2023-05-14T17:18:13.449Z,3.30
2023-05-14T17:23:15.649Z,3.30
2023-05-14T17:28:17.794Z,3.40
2023-05-14T17:33:19.767Z,2.78
2023-05-14T17:38:21.898Z,2.83
2023-05-14T17:43:23.938Z,3.28
2023-05-14T17:48:26.036Z,3.70
2023-05-14T17:53:28.129Z,3.42
2023-05-14T17:58:30.317Z,3.03
2023-05-14T18:03:32.408Z,3.10
2023-05-14T18:08:35.322Z,2.97
2023-05-14T18:13:37.716Z,3.10
2023-05-14T18:18:39.900Z,3.65
2023-05-14T18:23:42.080Z,2.78
2023-05-14T18:28:44.502Z,3.33
2023-05-14T18:33:46.736Z,3.10
2023-05-14T18:38:48.923Z,3.22
2023-05-14T18:43:51.211Z,3.67
2023-05-14T18:48:53.327Z,3.33
2023-05-14T18:53:56.041Z,3.42
2023-05-14T18:58:58.997Z,3.58
2023-05-14T19:04:05.628Z,3.63
2023-05-14T19:09:11.111Z,3.67
2023-05-14T19:14:46.420Z,3.13
2023-05-14T19:20:09.806Z,3.90
2023-05-14T19:25:18.833Z,4.03
2023-05-14T19:30:24.041Z,3.78
2023-05-14T19:35:26.861Z,4.25
2023-05-14T19:40:29.402Z,4.07
2023-05-14T19:45:40.005Z,4.15
2023-05-14T19:50:43.019Z,5.90
2023-05-14T19:55:45.335Z,5.45
2023-05-14T20:00:55.926Z,4.93
2023-05-14T20:05:58.706Z,4.57
2023-05-14T20:11:06.785Z,4.88
2023-05-14T20:16:28.683Z,4.25
2023-05-14T20:21:32.747Z,5.65
2023-05-14T20:26:35.361Z,5.07
2023-05-14T20:31:38.009Z,5.53
2023-05-14T20:36:42.549Z,4.88
2023-05-14T20:41:46.068Z,4.57
2023-05-14T20:46:48.669Z,4.60
2023-05-14T20:51:50.828Z,6.70
2023-05-14T20:56:53.221Z,4.10
2023-05-14T21:01:55.574Z,5.00
2023-05-14T21:06:58.130Z,5.38
2023-05-14T21:12:00.887Z,5.88
2023-05-14T21:17:04.556Z,4.90
2023-05-14T21:22:07.849Z,5.50
2023-05-14T21:27:09.978Z,5.72
2023-05-14T21:32:12.433Z,4.22
2023-05-14T21:37:15.966Z,3.85
2023-05-14T21:42:19.153Z,3.95
2023-05-14T21:47:21.739Z,4.07
2023-05-14T21:52:23.842Z,4.68
2023-05-14T21:57:28.368Z,4.00
2023-05-14T22:02:31.575Z,3.60
2023-05-14T22:07:33.616Z,3.83
2023-05-14T22:12:35.652Z,4.25
2023-05-14T22:17:38.073Z,3.83
2023-05-14T22:22:40.122Z,4.45
2023-05-14T22:27:42.043Z,4.63
2023-05-14T22:32:44.301Z,4.65
2023-05-14T22:37:46.367Z,4.70
2023-05-14T22:42:48.328Z,5.10
2023-05-14T22:47:50.641Z,4.10
2023-05-14T22:52:52.718Z,3.40
2023-05-14T22:57:54.717Z,3.67
2023-05-14T23:02:56.665Z,3.75
2023-05-14T23:07:58.688Z,3.55
2023-05-14T23:13:00.777Z,2.55
2023-05-14T23:18:03.001Z,4.18
2023-05-14T23:23:06.592Z,3.38
2023-05-14T23:28:08.576Z,3.47
2023-05-14T23:33:10.759Z,3.50
2023-05-14T23:38:12.880Z,3.47
2023-05-14T23:43:15.322Z,3.00
2023-05-14T23:48:17.474Z,3.35
2023-05-14T23:53:19.460Z,3.40
2023-05-14T23:58:21.400Z,3.15
